Airfield :
LOGIN :

Register | Disclaimer

   EN    FR    IT 

 










Legend :    VFR   Marginal VFR   IFR   Intensive IFR   Very Intensive IFR
Visi :
Ceiling :
>= 8 km
>= 3000ft
5 to 8 km
1000 to 3000 ft
1500m to 5 km
500 to 1000 ft
800 to 1500m
200 to 500 ft
< 800m
< 200 ft
Symbols :   Thunderstorms  Fog  Heavy snow  Heavy precipitations  Wind > 20 kt
SIGMETs :     Misc.  Thunderstorms  Icing  Turbulence  Mountain Waves  Volcanic Ashes






- Airport Elevation : 1115 ft
- IATA code : GRZ


LOWG - Graz

CURRENT METAR :
  • 171820Z AUTO 30007KT 270V340 9999 BKN070 09/M03 Q1023 NOSIG

EXPIRED METARs :
  • 171750Z AUTO 30008KT 260V340 9999 BKN070 09/M03 Q1022 NOSIG
  • 171720Z AUTO 32013KT 290V350 9999 FEW050 BKN080 09/M04 Q1022 NOSIG
  • 171650Z AUTO 32012G24KT 270V010 9999 FEW050 SCT077 09/M04 Q1021 NOSIG
  • 171620Z 32016G26KT 290V020 9999 FEW050 BKN077 10/M04 Q1021 NOSIG
  • 171550Z 33014KT 300V360 9999 FEW050 10/M04 Q1020 TEMPO 35006KT

TAF TAF LOWG
Valid from the 17 at 18:00 until the 18 at 18:00 UTC


171715Z 1718/1818 35005KT 9999 FEW050 SCT070 TX08/1814Z TNM02/1806Z
TEMPO 1718/1721 32012KT
PROB30
TEMPO 1718/1719 32015KT
TEMPO 1809/1815 34008KT



MET'MAP, your aeronautical weather chart ! - Copyright ORBIFLY December 2007 - Disclaimer

ORBIFLY MET'MAP TEAM :

Programming & Development : Alexandra Zaïnal
Concept & original design : Baudouin d'Aumeries
Assistance for programming : Marc-Olivier Méhu
Technical & hardware support : Manuel Goepfert

Contact : metmap@orbifly.com




SOURCES & CREDITS :

   NOAA